sensor_id;sensor_type;location;lat;lon;timestamp;P1;durP1;ratioP1;P2;durP2;ratioP2
17854;SDS011;9053;53.358;6.382;2023-07-20T00:00:41;2.67;;;0.70;;
17854;SDS011;9053;53.358;6.382;2023-07-20T00:03:11;0.60;;;0.60;;
17854;SDS011;9053;53.358;6.382;2023-07-20T00:05:43;1.15;;;0.60;;
17854;SDS011;9053;53.358;6.382;2023-07-20T00:08:16;1.00;;;0.75;;
17854;SDS011;9053;53.358;6.382;2023-07-20T00:10:47;0.90;;;0.73;;
17854;SDS011;9053;53.358;6.382;2023-07-20T00:13:16;1.75;;;0.88;;
17854;SDS011;9053;53.358;6.382;2023-07-20T00:15:47;1.77;;;0.77;;
17854;SDS011;9053;53.358;6.382;2023-07-20T00:18:17;1.35;;;0.80;;
17854;SDS011;9053;53.358;6.382;2023-07-20T00:20:47;0.88;;;0.80;;
17854;SDS011;9053;53.358;6.382;2023-07-20T00:23:20;2.22;;;0.70;;
17854;SDS011;9053;53.358;6.382;2023-07-20T00:25:51;1.10;;;0.80;;
17854;SDS011;9053;53.358;6.382;2023-07-20T00:28:20;0.77;;;0.70;;
17854;SDS011;9053;53.358;6.382;2023-07-20T00:30:50;1.33;;;0.90;;
17854;SDS011;9053;53.358;6.382;2023-07-20T00:33:20;0.70;;;0.70;;
17854;SDS011;9053;53.358;6.382;2023-07-20T00:35:50;1.20;;;0.82;;
17854;SDS011;9053;53.358;6.382;2023-07-20T00:38:24;1.33;;;0.80;;
17854;SDS011;9053;53.358;6.382;2023-07-20T00:40:54;1.73;;;0.80;;
17854;SDS011;9053;53.358;6.382;2023-07-20T00:43:24;1.20;;;0.80;;
17854;SDS011;9053;53.358;6.382;2023-07-20T00:45:54;1.75;;;0.75;;
17854;SDS011;9053;53.358;6.382;2023-07-20T00:48:24;1.42;;;0.80;;
17854;SDS011;9053;53.358;6.382;2023-07-20T00:50:55;1.48;;;0.70;;
17854;SDS011;9053;53.358;6.382;2023-07-20T00:53:29;2.40;;;0.70;;
17854;SDS011;9053;53.358;6.382;2023-07-20T00:55:59;1.90;;;0.90;;
17854;SDS011;9053;53.358;6.382;2023-07-20T00:58:30;1.00;;;0.90;;
17854;SDS011;9053;53.358;6.382;2023-07-20T01:01:00;1.08;;;0.88;;
17854;SDS011;9053;53.358;6.382;2023-07-20T01:03:31;2.40;;;0.90;;
17854;SDS011;9053;53.358;6.382;2023-07-20T01:06:03;1.25;;;0.80;;
17854;SDS011;9053;53.358;6.382;2023-07-20T01:08:46;1.95;;;0.85;;
17854;SDS011;9053;53.358;6.382;2023-07-20T01:11:28;0.98;;;0.60;;
17854;SDS011;9053;53.358;6.382;2023-07-20T01:14:06;1.17;;;0.70;;
17854;SDS011;9053;53.358;6.382;2023-07-20T01:16:36;2.72;;;0.80;;
17854;SDS011;9053;53.358;6.382;2023-07-20T01:19:06;1.23;;;0.60;;
17854;SDS011;9053;53.358;6.382;2023-07-20T01:21:39;1.13;;;0.82;;
17854;SDS011;9053;53.358;6.382;2023-07-20T01:30:16;1.20;;;0.80;;
17854;SDS011;9053;53.358;6.382;2023-07-20T01:32:57;1.27;;;0.90;;
17854;SDS011;9053;53.358;6.382;2023-07-20T01:35:29;2.10;;;0.95;;
17854;SDS011;9053;53.358;6.382;2023-07-20T01:38:00;1.15;;;0.88;;
17854;SDS011;9053;53.358;6.382;2023-07-20T01:40:31;1.83;;;1.00;;
17854;SDS011;9053;53.358;6.382;2023-07-20T01:43:01;2.08;;;0.85;;
17854;SDS011;9053;53.358;6.382;2023-07-20T01:45:32;0.77;;;0.70;;
17854;SDS011;9053;53.358;6.382;2023-07-20T01:48:04;0.95;;;0.73;;
17854;SDS011;9053;53.358;6.382;2023-07-20T01:50:34;1.27;;;0.90;;
17854;SDS011;9053;53.358;6.382;2023-07-20T01:53:05;1.23;;;0.70;;
17854;SDS011;9053;53.358;6.382;2023-07-20T01:55:37;0.90;;;0.70;;
17854;SDS011;9053;53.358;6.382;2023-07-20T01:58:07;1.13;;;0.80;;
17854;SDS011;9053;53.358;6.382;2023-07-20T02:00:37;0.80;;;0.73;;
17854;SDS011;9053;53.358;6.382;2023-07-20T02:03:09;1.15;;;0.93;;
17854;SDS011;9053;53.358;6.382;2023-07-20T02:05:41;2.50;;;1.20;;
17854;SDS011;9053;53.358;6.382;2023-07-20T02:08:11;1.45;;;0.80;;
17854;SDS011;9053;53.358;6.382;2023-07-20T02:10:44;1.10;;;0.90;;
17854;SDS011;9053;53.358;6.382;2023-07-20T02:13:15;1.27;;;1.00;;
17854;SDS011;9053;53.358;6.382;2023-07-20T02:15:45;1.73;;;0.88;;
17854;SDS011;9053;53.358;6.382;2023-07-20T02:18:18;1.40;;;1.08;;
17854;SDS011;9053;53.358;6.382;2023-07-20T02:20:48;0.98;;;0.90;;
17854;SDS011;9053;53.358;6.382;2023-07-20T02:23:18;1.90;;;0.98;;
17854;SDS011;9053;53.358;6.382;2023-07-20T02:25:48;0.93;;;0.90;;
17854;SDS011;9053;53.358;6.382;2023-07-20T02:28:18;1.60;;;1.10;;
17854;SDS011;9053;53.358;6.382;2023-07-20T02:30:47;1.38;;;1.27;;
17854;SDS011;9053;53.358;6.382;2023-07-20T02:33:21;1.63;;;1.20;;
17854;SDS011;9053;53.358;6.382;2023-07-20T02:35:50;1.58;;;1.17;;
17854;SDS011;9053;53.358;6.382;2023-07-20T02:38:20;1.33;;;1.00;;
17854;SDS011;9053;53.358;6.382;2023-07-20T02:40:50;1.35;;;1.10;;
17854;SDS011;9053;53.358;6.382;2023-07-20T02:43:20;1.38;;;0.90;;
17854;SDS011;9053;53.358;6.382;2023-07-20T02:45:50;1.85;;;1.00;;
17854;SDS011;9053;53.358;6.382;2023-07-20T02:48:23;1.25;;;1.15;;
17854;SDS011;9053;53.358;6.382;2023-07-20T02:50:53;2.03;;;1.08;;
17854;SDS011;9053;53.358;6.382;2023-07-20T02:53:23;1.10;;;1.00;;
17854;SDS011;9053;53.358;6.382;2023-07-20T02:55:54;2.08;;;1.10;;
17854;SDS011;9053;53.358;6.382;2023-07-20T02:58:24;2.45;;;1.02;;
17854;SDS011;9053;53.358;6.382;2023-07-20T03:00:54;1.90;;;1.00;;
17854;SDS011;9053;53.358;6.382;2023-07-20T03:03:27;1.23;;;1.13;;
17854;SDS011;9053;53.358;6.382;2023-07-20T03:05:57;1.95;;;1.05;;
17854;SDS011;9053;53.358;6.382;2023-07-20T03:08:27;1.67;;;1.00;;
17854;SDS011;9053;53.358;6.382;2023-07-20T03:10:57;2.75;;;1.08;;
17854;SDS011;9053;53.358;6.382;2023-07-20T03:13:27;1.73;;;1.00;;
17854;SDS011;9053;53.358;6.382;2023-07-20T03:15:58;1.10;;;1.00;;
17854;SDS011;9053;53.358;6.382;2023-07-20T03:18:30;1.85;;;0.80;;
17854;SDS011;9053;53.358;6.382;2023-07-20T03:21:00;1.50;;;1.00;;
17854;SDS011;9053;53.358;6.382;2023-07-20T03:23:30;1.75;;;1.20;;
17854;SDS011;9053;53.358;6.382;2023-07-20T03:26:00;3.35;;;1.15;;
17854;SDS011;9053;53.358;6.382;2023-07-20T03:28:30;1.48;;;1.00;;
17854;SDS011;9053;53.358;6.382;2023-07-20T03:31:00;2.08;;;1.00;;
17854;SDS011;9053;53.358;6.382;2023-07-20T03:33:33;1.15;;;1.05;;
17854;SDS011;9053;53.358;6.382;2023-07-20T03:36:05;1.33;;;1.00;;
17854;SDS011;9053;53.358;6.382;2023-07-20T03:38:36;1.20;;;0.80;;
17854;SDS011;9053;53.358;6.382;2023-07-20T03:41:06;1.23;;;1.00;;
17854;SDS011;9053;53.358;6.382;2023-07-20T03:43:38;2.40;;;1.10;;
17854;SDS011;9053;53.358;6.382;2023-07-20T03:46:09;1.05;;;0.90;;
17854;SDS011;9053;53.358;6.382;2023-07-20T03:48:41;0.80;;;0.80;;
17854;SDS011;9053;53.358;6.382;2023-07-20T03:51:11;1.65;;;1.00;;
17854;SDS011;9053;53.358;6.382;2023-07-20T03:53:41;2.65;;;1.10;;
17854;SDS011;9053;53.358;6.382;2023-07-20T03:56:12;1.30;;;1.05;;
17854;SDS011;9053;53.358;6.382;2023-07-20T03:58:42;1.52;;;0.95;;
17854;SDS011;9053;53.358;6.382;2023-07-20T04:01:12;1.48;;;1.00;;
17854;SDS011;9053;53.358;6.382;2023-07-20T04:03:45;1.88;;;0.80;;
17854;SDS011;9053;53.358;6.382;2023-07-20T04:06:17;1.75;;;1.00;;
17854;SDS011;9053;53.358;6.382;2023-07-20T04:08:47;1.65;;;1.00;;
17854;SDS011;9053;53.358;6.382;2023-07-20T04:11:17;0.85;;;0.82;;
17854;SDS011;9053;53.358;6.382;2023-07-20T04:13:47;2.92;;;1.17;;
17854;SDS011;9053;53.358;6.382;2023-07-20T04:16:18;0.90;;;0.90;;
17854;SDS011;9053;53.358;6.382;2023-07-20T04:18:51;2.35;;;0.95;;
17854;SDS011;9053;53.358;6.382;2023-07-20T04:21:21;3.08;;;0.90;;
17854;SDS011;9053;53.358;6.382;2023-07-20T04:23:50;1.83;;;1.20;;
17854;SDS011;9053;53.358;6.382;2023-07-20T04:26:20;2.35;;;1.10;;
17854;SDS011;9053;53.358;6.382;2023-07-20T04:28:51;1.92;;;1.30;;
17854;SDS011;9053;53.358;6.382;2023-07-20T04:31:21;2.47;;;1.20;;
17854;SDS011;9053;53.358;6.382;2023-07-20T04:33:53;2.28;;;1.05;;
17854;SDS011;9053;53.358;6.382;2023-07-20T04:36:23;2.20;;;1.38;;
17854;SDS011;9053;53.358;6.382;2023-07-20T04:38:53;2.13;;;1.10;;
17854;SDS011;9053;53.358;6.382;2023-07-20T04:41:25;2.05;;;1.10;;
17854;SDS011;9053;53.358;6.382;2023-07-20T04:43:55;3.20;;;0.93;;
17854;SDS011;9053;53.358;6.382;2023-07-20T04:46:24;2.10;;;1.10;;
17854;SDS011;9053;53.358;6.382;2023-07-20T04:48:57;2.00;;;1.10;;
17854;SDS011;9053;53.358;6.382;2023-07-20T04:51:28;2.20;;;1.25;;
17854;SDS011;9053;53.358;6.382;2023-07-20T04:53:58;3.30;;;1.30;;
17854;SDS011;9053;53.358;6.382;2023-07-20T04:56:28;3.28;;;0.93;;
17854;SDS011;9053;53.358;6.382;2023-07-20T04:58:58;1.13;;;0.90;;
17854;SDS011;9053;53.358;6.382;2023-07-20T05:01:28;2.22;;;0.88;;
17854;SDS011;9053;53.358;6.382;2023-07-20T05:04:01;3.08;;;1.00;;
17854;SDS011;9053;53.358;6.382;2023-07-20T05:06:34;2.20;;;0.90;;
17854;SDS011;9053;53.358;6.382;2023-07-20T05:09:05;2.65;;;1.10;;
17854;SDS011;9053;53.358;6.382;2023-07-20T05:11:36;1.52;;;0.70;;
17854;SDS011;9053;53.358;6.382;2023-07-20T05:14:05;2.22;;;1.05;;
17854;SDS011;9053;53.358;6.382;2023-07-20T05:16:35;1.63;;;1.10;;
17854;SDS011;9053;53.358;6.382;2023-07-20T05:19:08;2.05;;;1.05;;
17854;SDS011;9053;53.358;6.382;2023-07-20T05:21:38;1.35;;;0.88;;
17854;SDS011;9053;53.358;6.382;2023-07-20T05:24:08;2.00;;;1.38;;
17854;SDS011;9053;53.358;6.382;2023-07-20T05:26:37;1.70;;;0.98;;
17854;SDS011;9053;53.358;6.382;2023-07-20T05:29:07;2.42;;;1.20;;
17854;SDS011;9053;53.358;6.382;2023-07-20T05:31:37;2.58;;;1.17;;
17854;SDS011;9053;53.358;6.382;2023-07-20T05:34:10;1.83;;;1.10;;
17854;SDS011;9053;53.358;6.382;2023-07-20T05:36:40;3.45;;;1.05;;
17854;SDS011;9053;53.358;6.382;2023-07-20T05:39:10;2.22;;;1.00;;
17854;SDS011;9053;53.358;6.382;2023-07-20T05:41:40;2.55;;;1.10;;
17854;SDS011;9053;53.358;6.382;2023-07-20T05:44:11;1.27;;;0.80;;
17854;SDS011;9053;53.358;6.382;2023-07-20T05:46:41;1.20;;;1.00;;
17854;SDS011;9053;53.358;6.382;2023-07-20T05:49:24;1.02;;;0.93;;
17854;SDS011;9053;53.358;6.382;2023-07-20T05:51:54;1.92;;;0.90;;
17854;SDS011;9053;53.358;6.382;2023-07-20T05:54:24;1.58;;;0.88;;
17854;SDS011;9053;53.358;6.382;2023-07-20T05:56:55;4.88;;;1.27;;
17854;SDS011;9053;53.358;6.382;2023-07-20T05:59:26;2.35;;;1.30;;
17854;SDS011;9053;53.358;6.382;2023-07-20T06:01:58;2.95;;;1.55;;
17854;SDS011;9053;53.358;6.382;2023-07-20T06:04:30;2.95;;;1.50;;
17854;SDS011;9053;53.358;6.382;2023-07-20T06:07:00;2.63;;;1.48;;
17854;SDS011;9053;53.358;6.382;2023-07-20T06:09:30;3.40;;;1.92;;
17854;SDS011;9053;53.358;6.382;2023-07-20T06:12:00;4.53;;;1.70;;
17854;SDS011;9053;53.358;6.382;2023-07-20T06:14:30;2.72;;;1.55;;
17854;SDS011;9053;53.358;6.382;2023-07-20T06:17:00;3.35;;;1.27;;
17854;SDS011;9053;53.358;6.382;2023-07-20T06:19:32;3.83;;;1.70;;
17854;SDS011;9053;53.358;6.382;2023-07-20T06:22:02;3.45;;;1.73;;
17854;SDS011;9053;53.358;6.382;2023-07-20T06:24:33;2.47;;;1.42;;
17854;SDS011;9053;53.358;6.382;2023-07-20T06:27:03;1.42;;;1.20;;
17854;SDS011;9053;53.358;6.382;2023-07-20T06:29:34;2.65;;;1.40;;
17854;SDS011;9053;53.358;6.382;2023-07-20T06:32:04;2.28;;;1.38;;
17854;SDS011;9053;53.358;6.382;2023-07-20T06:34:37;2.45;;;1.33;;
17854;SDS011;9053;53.358;6.382;2023-07-20T06:37:07;1.67;;;1.45;;
17854;SDS011;9053;53.358;6.382;2023-07-20T06:39:37;3.38;;;1.50;;
17854;SDS011;9053;53.358;6.382;2023-07-20T06:42:10;3.63;;;1.70;;
17854;SDS011;9053;53.358;6.382;2023-07-20T06:44:40;4.07;;;1.88;;
17854;SDS011;9053;53.358;6.382;2023-07-20T06:47:11;4.05;;;1.52;;
17854;SDS011;9053;53.358;6.382;2023-07-20T06:49:43;2.50;;;1.27;;
17854;SDS011;9053;53.358;6.382;2023-07-20T06:52:14;4.25;;;1.48;;
17854;SDS011;9053;53.358;6.382;2023-07-20T06:54:44;2.53;;;1.35;;
17854;SDS011;9053;53.358;6.382;2023-07-20T06:57:34;2.28;;;1.40;;
17854;SDS011;9053;53.358;6.382;2023-07-20T07:00:05;2.38;;;1.20;;
17854;SDS011;9053;53.358;6.382;2023-07-20T07:02:36;4.20;;;1.55;;
17854;SDS011;9053;53.358;6.382;2023-07-20T07:05:15;3.70;;;1.20;;
17854;SDS011;9053;53.358;6.382;2023-07-20T07:07:47;3.92;;;1.38;;
17854;SDS011;9053;53.358;6.382;2023-07-20T07:10:18;2.90;;;1.63;;
17854;SDS011;9053;53.358;6.382;2023-07-20T07:12:48;2.17;;;1.10;;
17854;SDS011;9053;53.358;6.382;2023-07-20T07:15:17;1.45;;;1.10;;
17854;SDS011;9053;53.358;6.382;2023-07-20T07:17:47;3.08;;;1.30;;
17854;SDS011;9053;53.358;6.382;2023-07-20T07:20:20;2.45;;;1.25;;
17854;SDS011;9053;53.358;6.382;2023-07-20T07:22:50;1.70;;;1.08;;
17854;SDS011;9053;53.358;6.382;2023-07-20T07:25:22;3.97;;;1.20;;
17854;SDS011;9053;53.358;6.382;2023-07-20T07:27:53;3.45;;;1.20;;
17854;SDS011;9053;53.358;6.382;2023-07-20T07:30:24;1.60;;;1.00;;
17854;SDS011;9053;53.358;6.382;2023-07-20T07:32:54;1.83;;;0.90;;
17854;SDS011;9053;53.358;6.382;2023-07-20T07:35:26;2.58;;;0.90;;
17854;SDS011;9053;53.358;6.382;2023-07-20T07:37:56;2.13;;;0.90;;
17854;SDS011;9053;53.358;6.382;2023-07-20T07:40:46;2.33;;;1.00;;
17854;SDS011;9053;53.358;6.382;2023-07-20T07:43:16;1.58;;;0.88;;
17854;SDS011;9053;53.358;6.382;2023-07-20T07:45:46;2.70;;;0.90;;
17854;SDS011;9053;53.358;6.382;2023-07-20T07:48:16;4.25;;;1.27;;
17854;SDS011;9053;53.358;6.382;2023-07-20T07:50:49;2.83;;;1.02;;
17854;SDS011;9053;53.358;6.382;2023-07-20T07:53:21;4.20;;;1.20;;
17854;SDS011;9053;53.358;6.382;2023-07-20T07:55:52;1.83;;;0.80;;
17854;SDS011;9053;53.358;6.382;2023-07-20T07:58:22;2.83;;;1.30;;
17854;SDS011;9053;53.358;6.382;2023-07-20T08:00:52;2.05;;;0.85;;
17854;SDS011;9053;53.358;6.382;2023-07-20T08:03:22;3.63;;;0.95;;
17854;SDS011;9053;53.358;6.382;2023-07-20T08:05:56;1.55;;;0.75;;
17854;SDS011;9053;53.358;6.382;2023-07-20T08:08:26;1.80;;;0.77;;
17854;SDS011;9053;53.358;6.382;2023-07-20T08:10:57;2.22;;;1.02;;
17854;SDS011;9053;53.358;6.382;2023-07-20T08:13:33;2.08;;;0.95;;
17854;SDS011;9053;53.358;6.382;2023-07-20T08:16:03;2.55;;;0.80;;
17854;SDS011;9053;53.358;6.382;2023-07-20T08:18:33;4.25;;;0.80;;
17854;SDS011;9053;53.358;6.382;2023-07-20T08:21:06;1.77;;;0.75;;
17854;SDS011;9053;53.358;6.382;2023-07-20T08:23:36;3.10;;;0.90;;
17854;SDS011;9053;53.358;6.382;2023-07-20T08:26:07;2.25;;;0.68;;
17854;SDS011;9053;53.358;6.382;2023-07-20T08:28:37;1.55;;;0.57;;
17854;SDS011;9053;53.358;6.382;2023-07-20T08:31:07;2.00;;;0.93;;
17854;SDS011;9053;53.358;6.382;2023-07-20T08:33:37;2.90;;;0.85;;
17854;SDS011;9053;53.358;6.382;2023-07-20T08:36:09;1.88;;;0.80;;
17854;SDS011;9053;53.358;6.382;2023-07-20T08:38:39;2.85;;;0.90;;
17854;SDS011;9053;53.358;6.382;2023-07-20T08:41:09;2.28;;;0.75;;
17854;SDS011;9053;53.358;6.382;2023-07-20T08:43:39;2.35;;;0.90;;
17854;SDS011;9053;53.358;6.382;2023-07-20T08:46:13;1.63;;;0.80;;
17854;SDS011;9053;53.358;6.382;2023-07-20T08:48:44;1.38;;;0.68;;
17854;SDS011;9053;53.358;6.382;2023-07-20T08:51:17;0.90;;;0.60;;
17854;SDS011;9053;53.358;6.382;2023-07-20T08:53:49;2.65;;;0.90;;
17854;SDS011;9053;53.358;6.382;2023-07-20T08:56:22;2.20;;;0.98;;
17854;SDS011;9053;53.358;6.382;2023-07-20T08:58:54;1.42;;;0.80;;
17854;SDS011;9053;53.358;6.382;2023-07-20T09:01:24;2.45;;;0.70;;
17854;SDS011;9053;53.358;6.382;2023-07-20T09:03:56;2.30;;;0.70;;
17854;SDS011;9053;53.358;6.382;2023-07-20T09:06:28;1.05;;;0.80;;
17854;SDS011;9053;53.358;6.382;2023-07-20T09:08:59;2.25;;;0.85;;
17854;SDS011;9053;53.358;6.382;2023-07-20T09:11:29;2.45;;;0.82;;
17854;SDS011;9053;53.358;6.382;2023-07-20T09:14:02;1.45;;;0.80;;
17854;SDS011;9053;53.358;6.382;2023-07-20T09:16:34;1.30;;;0.50;;
17854;SDS011;9053;53.358;6.382;2023-07-20T09:19:17;0.95;;;0.77;;
17854;SDS011;9053;53.358;6.382;2023-07-20T09:21:50;3.17;;;0.77;;
17854;SDS011;9053;53.358;6.382;2023-07-20T09:24:21;1.02;;;0.47;;
17854;SDS011;9053;53.358;6.382;2023-07-20T09:26:52;3.90;;;0.75;;
17854;SDS011;9053;53.358;6.382;2023-07-20T09:29:22;3.50;;;0.80;;
17854;SDS011;9053;53.358;6.382;2023-07-20T09:31:58;2.85;;;0.80;;
17854;SDS011;9053;53.358;6.382;2023-07-20T09:34:29;1.90;;;0.77;;
17854;SDS011;9053;53.358;6.382;2023-07-20T09:37:05;2.72;;;0.57;;
17854;SDS011;9053;53.358;6.382;2023-07-20T09:39:41;2.38;;;0.90;;
17854;SDS011;9053;53.358;6.382;2023-07-20T09:42:15;2.05;;;0.70;;
17854;SDS011;9053;53.358;6.382;2023-07-20T09:44:48;0.85;;;0.68;;
17854;SDS011;9053;53.358;6.382;2023-07-20T09:47:21;2.08;;;0.70;;
17854;SDS011;9053;53.358;6.382;2023-07-20T09:49:57;1.98;;;0.73;;
17854;SDS011;9053;53.358;6.382;2023-07-20T09:52:34;2.65;;;0.80;;
17854;SDS011;9053;53.358;6.382;2023-07-20T09:55:09;1.35;;;0.70;;
17854;SDS011;9053;53.358;6.382;2023-07-20T09:57:40;1.70;;;0.70;;
17854;SDS011;9053;53.358;6.382;2023-07-20T10:00:10;1.00;;;0.70;;
17854;SDS011;9053;53.358;6.382;2023-07-20T10:02:45;0.70;;;0.57;;
17854;SDS011;9053;53.358;6.382;2023-07-20T10:05:16;1.20;;;0.77;;
17854;SDS011;9053;53.358;6.382;2023-07-20T10:07:51;1.50;;;0.63;;
17854;SDS011;9053;53.358;6.382;2023-07-20T10:10:25;3.08;;;0.77;;
17854;SDS011;9053;53.358;6.382;2023-07-20T10:12:55;1.85;;;0.70;;
17854;SDS011;9053;53.358;6.382;2023-07-20T10:15:28;1.05;;;0.70;;
17854;SDS011;9053;53.358;6.382;2023-07-20T10:18:02;0.70;;;0.40;;
17854;SDS011;9053;53.358;6.382;2023-07-20T10:20:38;1.38;;;0.70;;
17854;SDS011;9053;53.358;6.382;2023-07-20T10:23:15;1.85;;;0.60;;
17854;SDS011;9053;53.358;6.382;2023-07-20T10:25:45;1.05;;;0.60;;
17854;SDS011;9053;53.358;6.382;2023-07-20T10:28:17;0.80;;;0.68;;
17854;SDS011;9053;53.358;6.382;2023-07-20T10:30:48;1.65;;;0.65;;
17854;SDS011;9053;53.358;6.382;2023-07-20T10:33:19;1.40;;;0.60;;
17854;SDS011;9053;53.358;6.382;2023-07-20T10:35:53;0.90;;;0.70;;
17854;SDS011;9053;53.358;6.382;2023-07-20T10:41:15;1.17;;;0.70;;
17854;SDS011;9053;53.358;6.382;2023-07-20T10:43:47;2.08;;;0.70;;
17854;SDS011;9053;53.358;6.382;2023-07-20T10:49:03;0.60;;;0.55;;
17854;SDS011;9053;53.358;6.382;2023-07-20T10:51:39;1.20;;;0.70;;
17854;SDS011;9053;53.358;6.382;2023-07-20T10:54:33;1.17;;;0.63;;
17854;SDS011;9053;53.358;6.382;2023-07-20T10:57:23;1.50;;;0.60;;
17854;SDS011;9053;53.358;6.382;2023-07-20T11:00:07;2.78;;;1.10;;
17854;SDS011;9053;53.358;6.382;2023-07-20T11:02:44;1.20;;;0.57;;
17854;SDS011;9053;53.358;6.382;2023-07-20T11:08:10;1.38;;;0.70;;
17854;SDS011;9053;53.358;6.382;2023-07-20T11:10:44;0.98;;;0.60;;
17854;SDS011;9053;53.358;6.382;2023-07-20T11:13:18;0.95;;;0.60;;
17854;SDS011;9053;53.358;6.382;2023-07-20T11:16:01;0.68;;;0.50;;
17854;SDS011;9053;53.358;6.382;2023-07-20T11:18:33;1.58;;;0.60;;
17854;SDS011;9053;53.358;6.382;2023-07-20T11:21:09;1.25;;;0.68;;
17854;SDS011;9053;53.358;6.382;2023-07-20T11:23:40;1.27;;;0.70;;
17854;SDS011;9053;53.358;6.382;2023-07-20T11:26:14;2.22;;;0.68;;
17854;SDS011;9053;53.358;6.382;2023-07-20T11:28:48;0.80;;;0.68;;
17854;SDS011;9053;53.358;6.382;2023-07-20T11:31:20;4.10;;;0.90;;
17854;SDS011;9053;53.358;6.382;2023-07-20T11:33:50;0.82;;;0.57;;
17854;SDS011;9053;53.358;6.382;2023-07-20T11:36:20;1.48;;;0.65;;
17854;SDS011;9053;53.358;6.382;2023-07-20T11:38:53;1.38;;;0.70;;
17854;SDS011;9053;53.358;6.382;2023-07-20T11:41:26;1.65;;;0.60;;
17854;SDS011;9053;53.358;6.382;2023-07-20T11:43:56;1.25;;;0.55;;
17854;SDS011;9053;53.358;6.382;2023-07-20T11:46:27;1.02;;;0.50;;
17854;SDS011;9053;53.358;6.382;2023-07-20T11:48:58;1.45;;;0.70;;
17854;SDS011;9053;53.358;6.382;2023-07-20T11:51:29;1.42;;;0.45;;
17854;SDS011;9053;53.358;6.382;2023-07-20T11:54:00;1.42;;;0.60;;
17854;SDS011;9053;53.358;6.382;2023-07-20T11:56:34;0.73;;;0.60;;
17854;SDS011;9053;53.358;6.382;2023-07-20T11:59:04;2.05;;;0.70;;
17854;SDS011;9053;53.358;6.382;2023-07-20T12:01:36;1.98;;;0.70;;
17854;SDS011;9053;53.358;6.382;2023-07-20T12:04:06;1.20;;;0.50;;
17854;SDS011;9053;53.358;6.382;2023-07-20T12:06:36;1.25;;;0.70;;
17854;SDS011;9053;53.358;6.382;2023-07-20T12:09:06;1.52;;;0.75;;
17854;SDS011;9053;53.358;6.382;2023-07-20T12:11:48;0.95;;;0.60;;
17854;SDS011;9053;53.358;6.382;2023-07-20T12:14:19;0.70;;;0.60;;
17854;SDS011;9053;53.358;6.382;2023-07-20T12:16:52;0.57;;;0.45;;
17854;SDS011;9053;53.358;6.382;2023-07-20T12:19:24;0.90;;;0.55;;
17854;SDS011;9053;53.358;6.382;2023-07-20T12:21:57;0.82;;;0.57;;
17854;SDS011;9053;53.358;6.382;2023-07-20T12:24:28;1.55;;;0.60;;
17854;SDS011;9053;53.358;6.382;2023-07-20T12:27:02;1.40;;;0.88;;
17854;SDS011;9053;53.358;6.382;2023-07-20T12:29:33;0.73;;;0.52;;
17854;SDS011;9053;53.358;6.382;2023-07-20T12:32:04;2.58;;;0.60;;
17854;SDS011;9053;53.358;6.382;2023-07-20T12:34:35;1.13;;;0.68;;
17854;SDS011;9053;53.358;6.382;2023-07-20T12:37:05;1.05;;;0.70;;
17854;SDS011;9053;53.358;6.382;2023-07-20T12:39:38;0.70;;;0.60;;
17854;SDS011;9053;53.358;6.382;2023-07-20T12:42:16;1.13;;;0.60;;
17854;SDS011;9053;53.358;6.382;2023-07-20T12:44:47;0.65;;;0.60;;
17854;SDS011;9053;53.358;6.382;2023-07-20T12:47:18;1.30;;;0.80;;
17854;SDS011;9053;53.358;6.382;2023-07-20T12:49:49;1.27;;;0.75;;
17854;SDS011;9053;53.358;6.382;2023-07-20T12:52:21;1.00;;;0.65;;
17854;SDS011;9053;53.358;6.382;2023-07-20T12:54:53;0.80;;;0.60;;
17854;SDS011;9053;53.358;6.382;2023-07-20T12:57:26;1.35;;;0.90;;
17854;SDS011;9053;53.358;6.382;2023-07-20T12:59:56;2.25;;;0.50;;
17854;SDS011;9053;53.358;6.382;2023-07-20T13:02:27;0.98;;;0.70;;
17854;SDS011;9053;53.358;6.382;2023-07-20T13:04:57;1.17;;;0.65;;
17854;SDS011;9053;53.358;6.382;2023-07-20T13:07:31;2.42;;;0.95;;
17854;SDS011;9053;53.358;6.382;2023-07-20T13:10:06;1.98;;;0.95;;
17854;SDS011;9053;53.358;6.382;2023-07-20T13:12:39;1.70;;;0.90;;
17854;SDS011;9053;53.358;6.382;2023-07-20T13:15:09;2.60;;;0.77;;
17854;SDS011;9053;53.358;6.382;2023-07-20T13:17:40;1.35;;;0.80;;
17854;SDS011;9053;53.358;6.382;2023-07-20T13:20:10;1.10;;;0.70;;
17854;SDS011;9053;53.358;6.382;2023-07-20T13:22:43;1.85;;;0.80;;
17854;SDS011;9053;53.358;6.382;2023-07-20T13:25:14;1.48;;;0.80;;
17854;SDS011;9053;53.358;6.382;2023-07-20T13:27:49;1.95;;;0.95;;
17854;SDS011;9053;53.358;6.382;2023-07-20T13:30:19;0.70;;;0.70;;
17854;SDS011;9053;53.358;6.382;2023-07-20T13:32:49;1.75;;;1.00;;
17854;SDS011;9053;53.358;6.382;2023-07-20T13:35:20;1.65;;;1.00;;
17854;SDS011;9053;53.358;6.382;2023-07-20T13:37:50;1.83;;;1.00;;
17854;SDS011;9053;53.358;6.382;2023-07-20T13:40:20;1.60;;;1.10;;
17854;SDS011;9053;53.358;6.382;2023-07-20T13:42:54;1.48;;;1.02;;
17854;SDS011;9053;53.358;6.382;2023-07-20T13:45:25;1.88;;;1.00;;
17854;SDS011;9053;53.358;6.382;2023-07-20T13:47:56;1.40;;;0.80;;
17854;SDS011;9053;53.358;6.382;2023-07-20T13:50:29;2.67;;;1.17;;
17854;SDS011;9053;53.358;6.382;2023-07-20T13:53:04;1.10;;;0.93;;
17854;SDS011;9053;53.358;6.382;2023-07-20T13:55:37;2.35;;;1.10;;
17854;SDS011;9053;53.358;6.382;2023-07-20T13:58:12;2.40;;;0.93;;
17854;SDS011;9053;53.358;6.382;2023-07-20T14:00:42;2.47;;;0.90;;
17854;SDS011;9053;53.358;6.382;2023-07-20T14:03:12;1.95;;;1.00;;
17854;SDS011;9053;53.358;6.382;2023-07-20T14:05:45;2.30;;;1.00;;
17854;SDS011;9053;53.358;6.382;2023-07-20T14:08:18;2.00;;;1.23;;
17854;SDS011;9053;53.358;6.382;2023-07-20T14:10:48;3.75;;;1.10;;
17854;SDS011;9053;53.358;6.382;2023-07-20T14:13:24;3.38;;;1.13;;
17854;SDS011;9053;53.358;6.382;2023-07-20T14:16:12;2.65;;;1.10;;
17854;SDS011;9053;53.358;6.382;2023-07-20T14:18:42;2.25;;;1.00;;
17854;SDS011;9053;53.358;6.382;2023-07-20T14:21:15;2.65;;;1.17;;
17854;SDS011;9053;53.358;6.382;2023-07-20T14:23:46;2.08;;;1.00;;
17854;SDS011;9053;53.358;6.382;2023-07-20T14:26:19;1.52;;;1.05;;
17854;SDS011;9053;53.358;6.382;2023-07-20T14:28:53;2.67;;;1.10;;
17854;SDS011;9053;53.358;6.382;2023-07-20T14:31:22;2.38;;;1.10;;
17854;SDS011;9053;53.358;6.382;2023-07-20T14:33:52;2.38;;;0.90;;
17854;SDS011;9053;53.358;6.382;2023-07-20T14:36:25;1.92;;;1.13;;
17854;SDS011;9053;53.358;6.382;2023-07-20T14:38:57;2.45;;;1.10;;
17854;SDS011;9053;53.358;6.382;2023-07-20T14:41:27;1.73;;;1.10;;
17854;SDS011;9053;53.358;6.382;2023-07-20T14:43:59;2.42;;;1.00;;
17854;SDS011;9053;53.358;6.382;2023-07-20T14:46:29;1.70;;;1.17;;
17854;SDS011;9053;53.358;6.382;2023-07-20T14:49:00;1.15;;;0.82;;
17854;SDS011;9053;53.358;6.382;2023-07-20T14:51:30;2.78;;;1.08;;
17854;SDS011;9053;53.358;6.382;2023-07-20T14:54:03;1.95;;;0.93;;
17854;SDS011;9053;53.358;6.382;2023-07-20T14:56:37;1.45;;;1.00;;
17854;SDS011;9053;53.358;6.382;2023-07-20T14:59:10;2.13;;;0.85;;
17854;SDS011;9053;53.358;6.382;2023-07-20T15:01:40;2.30;;;1.10;;
17854;SDS011;9053;53.358;6.382;2023-07-20T15:04:14;2.55;;;0.90;;
17854;SDS011;9053;53.358;6.382;2023-07-20T15:06:44;2.20;;;1.30;;
17854;SDS011;9053;53.358;6.382;2023-07-20T15:09:14;1.88;;;1.05;;
17854;SDS011;9053;53.358;6.382;2023-07-20T15:11:44;2.15;;;1.08;;
17854;SDS011;9053;53.358;6.382;2023-07-20T15:14:17;3.05;;;1.20;;
17854;SDS011;9053;53.358;6.382;2023-07-20T15:16:47;2.90;;;1.30;;
17854;SDS011;9053;53.358;6.382;2023-07-20T15:19:16;1.30;;;0.88;;
17854;SDS011;9053;53.358;6.382;2023-07-20T15:21:48;2.95;;;1.02;;
17854;SDS011;9053;53.358;6.382;2023-07-20T15:24:18;1.60;;;0.90;;
17854;SDS011;9053;53.358;6.382;2023-07-20T15:26:48;2.90;;;1.10;;
17854;SDS011;9053;53.358;6.382;2023-07-20T15:29:21;2.10;;;1.00;;
17854;SDS011;9053;53.358;6.382;2023-07-20T15:31:53;2.03;;;1.10;;
17854;SDS011;9053;53.358;6.382;2023-07-20T15:34:26;2.03;;;0.90;;
17854;SDS011;9053;53.358;6.382;2023-07-20T15:36:56;1.40;;;0.77;;
17854;SDS011;9053;53.358;6.382;2023-07-20T15:39:26;1.50;;;0.65;;
17854;SDS011;9053;53.358;6.382;2023-07-20T15:41:56;1.63;;;0.95;;